sensor_id;sensor_type;location;lat;lon;timestamp;temperature;humidity
12907;DHT22;6521;50.498;8.474;2022-11-20T00:02:20;0.02;85.77
12907;DHT22;6521;50.498;8.474;2022-11-20T00:04:50;0.04;85.85
12907;DHT22;6521;50.498;8.474;2022-11-20T00:07:20;0.07;85.13
12907;DHT22;6521;50.498;8.474;2022-11-20T00:09:51;0.02;85.16
12907;DHT22;6521;50.498;8.474;2022-11-20T00:12:21;0.01;85.34
12907;DHT22;6521;50.498;8.474;2022-11-20T00:14:52;0.00;85.26
12907;DHT22;6521;50.498;8.474;2022-11-20T00:17:22;0.02;85.54
12907;DHT22;6521;50.498;8.474;2022-11-20T00:19:53;0.00;85.77
12907;DHT22;6521;50.498;8.474;2022-11-20T00:22:23;-0.05;85.85
12907;DHT22;6521;50.498;8.474;2022-11-20T00:24:54;-0.02;85.97
12907;DHT22;6521;50.498;8.474;2022-11-20T00:27:24;-0.02;85.82
12907;DHT22;6521;50.498;8.474;2022-11-20T00:29:55;-0.05;85.23
12907;DHT22;6521;50.498;8.474;2022-11-20T00:32:25;-0.06;85.03
12907;DHT22;6521;50.498;8.474;2022-11-20T00:34:56;-0.07;84.46
12907;DHT22;6521;50.498;8.474;2022-11-20T00:37:26;-0.07;84.49
12907;DHT22;6521;50.498;8.474;2022-11-20T00:39:57;-0.09;84.57
12907;DHT22;6521;50.498;8.474;2022-11-20T00:42:27;-0.10;84.51
12907;DHT22;6521;50.498;8.474;2022-11-20T00:44:58;-0.06;84.71
12907;DHT22;6521;50.498;8.474;2022-11-20T00:47:28;-0.05;84.86
12907;DHT22;6521;50.498;8.474;2022-11-20T00:49:59;-0.03;84.66
12907;DHT22;6521;50.498;8.474;2022-11-20T00:52:29;0.00;84.71
12907;DHT22;6521;50.498;8.474;2022-11-20T00:55:00;-0.07;84.42
12907;DHT22;6521;50.498;8.474;2022-11-20T00:57:31;-0.10;84.09
12907;DHT22;6521;50.498;8.474;2022-11-20T01:00:02;-0.14;83.96
12907;DHT22;6521;50.498;8.474;2022-11-20T01:02:32;-0.17;84.08
12907;DHT22;6521;50.498;8.474;2022-11-20T01:05:03;-0.20;84.45
12907;DHT22;6521;50.498;8.474;2022-11-20T01:07:33;-0.16;84.47
12907;DHT22;6521;50.498;8.474;2022-11-20T01:10:04;-0.17;84.12
12907;DHT22;6521;50.498;8.474;2022-11-20T01:12:35;-0.14;84.33
12907;DHT22;6521;50.498;8.474;2022-11-20T01:15:06;-0.14;84.36
12907;DHT22;6521;50.498;8.474;2022-11-20T01:17:36;-0.16;84.43
12907;DHT22;6521;50.498;8.474;2022-11-20T01:20:07;-0.11;84.35
12907;DHT22;6521;50.498;8.474;2022-11-20T01:22:38;-0.13;84.49
12907;DHT22;6521;50.498;8.474;2022-11-20T01:25:09;-0.07;84.40
12907;DHT22;6521;50.498;8.474;2022-11-20T01:27:39;-0.10;84.42
12907;DHT22;6521;50.498;8.474;2022-11-20T01:30:10;-0.13;84.22
12907;DHT22;6521;50.498;8.474;2022-11-20T01:32:41;-0.10;84.39
12907;DHT22;6521;50.498;8.474;2022-11-20T01:35:12;-0.10;84.31
12907;DHT22;6521;50.498;8.474;2022-11-20T01:37:57;-0.10;84.49
12907;DHT22;6521;50.498;8.474;2022-11-20T01:40:38;-0.09;84.48
12907;DHT22;6521;50.498;8.474;2022-11-20T01:43:19;-0.09;84.37
12907;DHT22;6521;50.498;8.474;2022-11-20T01:46:18;-0.17;83.84
12907;DHT22;6521;50.498;8.474;2022-11-20T01:51:52;-0.14;83.94
12907;DHT22;6521;50.498;8.474;2022-11-20T01:55:04;-0.14;84.29
12907;DHT22;6521;50.498;8.474;2022-11-20T01:57:51;-0.13;84.51
12907;DHT22;6521;50.498;8.474;2022-11-20T02:00:37;-0.13;84.81
12907;DHT22;6521;50.498;8.474;2022-11-20T02:03:23;-0.11;84.98
12907;DHT22;6521;50.498;8.474;2022-11-20T02:08:28;-0.07;85.18
12907;DHT22;6521;50.498;8.474;2022-11-20T02:10:59;-0.09;84.48
12907;DHT22;6521;50.498;8.474;2022-11-20T02:13:29;-0.11;85.13
12907;DHT22;6521;50.498;8.474;2022-11-20T02:16:22;-0.10;85.27
12907;DHT22;6521;50.498;8.474;2022-11-20T02:18:55;-0.06;85.38
12907;DHT22;6521;50.498;8.474;2022-11-20T02:24:12;-0.03;85.55
12907;DHT22;6521;50.498;8.474;2022-11-20T02:26:48;0.00;85.52
12907;DHT22;6521;50.498;8.474;2022-11-20T02:29:31;-0.28;84.83
12907;DHT22;6521;50.498;8.474;2022-11-20T02:32:03;-0.34;84.86
12907;DHT22;6521;50.498;8.474;2022-11-20T02:34:33;-0.27;85.39
12907;DHT22;6521;50.498;8.474;2022-11-20T02:37:04;-0.26;85.57
12907;DHT22;6521;50.498;8.474;2022-11-20T02:39:34;-0.20;85.67
12907;DHT22;6521;50.498;8.474;2022-11-20T02:42:05;-0.17;85.88
12907;DHT22;6521;50.498;8.474;2022-11-20T02:44:35;-0.14;85.65
12907;DHT22;6521;50.498;8.474;2022-11-20T02:47:06;-0.10;85.64
12907;DHT22;6521;50.498;8.474;2022-11-20T02:49:36;-0.09;85.54
12907;DHT22;6521;50.498;8.474;2022-11-20T02:52:06;-0.06;85.66
12907;DHT22;6521;50.498;8.474;2022-11-20T02:54:37;-0.07;85.45
12907;DHT22;6521;50.498;8.474;2022-11-20T02:57:07;-0.03;85.54
12907;DHT22;6521;50.498;8.474;2022-11-20T02:59:38;-0.03;85.60
12907;DHT22;6521;50.498;8.474;2022-11-20T03:02:08;-0.05;85.69
12907;DHT22;6521;50.498;8.474;2022-11-20T03:04:39;-0.06;85.34
12907;DHT22;6521;50.498;8.474;2022-11-20T03:07:09;-0.02;85.57
12907;DHT22;6521;50.498;8.474;2022-11-20T03:09:40;0.00;85.65
12907;DHT22;6521;50.498;8.474;2022-11-20T03:12:10;0.01;85.76
12907;DHT22;6521;50.498;8.474;2022-11-20T03:14:41;0.02;85.64
12907;DHT22;6521;50.498;8.474;2022-11-20T03:17:11;0.04;85.90
12907;DHT22;6521;50.498;8.474;2022-11-20T03:19:42;0.05;86.25
12907;DHT22;6521;50.498;8.474;2022-11-20T03:22:12;0.02;85.78
12907;DHT22;6521;50.498;8.474;2022-11-20T03:24:43;-0.09;85.84
12907;DHT22;6521;50.498;8.474;2022-11-20T03:27:13;-0.06;86.29
12907;DHT22;6521;50.498;8.474;2022-11-20T03:29:44;-0.10;86.59
12907;DHT22;6521;50.498;8.474;2022-11-20T03:32:14;-0.14;86.53
12907;DHT22;6521;50.498;8.474;2022-11-20T03:34:45;-0.11;86.79
12907;DHT22;6521;50.498;8.474;2022-11-20T03:37:15;-0.10;87.30
12907;DHT22;6521;50.498;8.474;2022-11-20T03:39:46;-0.06;87.42
12907;DHT22;6521;50.498;8.474;2022-11-20T03:42:16;-0.06;87.17
12907;DHT22;6521;50.498;8.474;2022-11-20T03:45:05;-0.05;87.17
12907;DHT22;6521;50.498;8.474;2022-11-20T03:47:36;-0.02;87.14
12907;DHT22;6521;50.498;8.474;2022-11-20T03:50:08;0.00;87.01
12907;DHT22;6521;50.498;8.474;2022-11-20T03:52:39;-0.06;86.39
12907;DHT22;6521;50.498;8.474;2022-11-20T03:55:10;-0.10;86.70
12907;DHT22;6521;50.498;8.474;2022-11-20T03:57:40;-0.14;87.01
12907;DHT22;6521;50.498;8.474;2022-11-20T04:00:11;-0.09;87.51
12907;DHT22;6521;50.498;8.474;2022-11-20T04:02:42;-0.09;87.42
12907;DHT22;6521;50.498;8.474;2022-11-20T04:05:12;-0.05;87.40
12907;DHT22;6521;50.498;8.474;2022-11-20T04:07:42;-0.03;87.34
12907;DHT22;6521;50.498;8.474;2022-11-20T04:10:13;-0.05;87.29
12907;DHT22;6521;50.498;8.474;2022-11-20T04:12:43;-0.03;87.00
12907;DHT22;6521;50.498;8.474;2022-11-20T04:15:14;-0.07;87.05
12907;DHT22;6521;50.498;8.474;2022-11-20T04:17:44;-0.09;87.13
12907;DHT22;6521;50.498;8.474;2022-11-20T04:20:15;-0.11;87.19
12907;DHT22;6521;50.498;8.474;2022-11-20T04:22:45;-0.11;86.79
12907;DHT22;6521;50.498;8.474;2022-11-20T04:25:16;-0.27;86.03
12907;DHT22;6521;50.498;8.474;2022-11-20T04:27:46;-0.30;87.02
12907;DHT22;6521;50.498;8.474;2022-11-20T04:30:17;-0.24;87.48
12907;DHT22;6521;50.498;8.474;2022-11-20T04:32:48;-0.17;87.93
12907;DHT22;6521;50.498;8.474;2022-11-20T04:35:18;-0.10;87.80
12907;DHT22;6521;50.498;8.474;2022-11-20T04:37:51;-0.07;87.80
12907;DHT22;6521;50.498;8.474;2022-11-20T04:40:21;-0.03;87.46
12907;DHT22;6521;50.498;8.474;2022-11-20T04:42:52;-0.13;87.72
12907;DHT22;6521;50.498;8.474;2022-11-20T04:45:23;-0.11;87.47
12907;DHT22;6521;50.498;8.474;2022-11-20T04:47:53;-0.14;86.78
12907;DHT22;6521;50.498;8.474;2022-11-20T04:50:24;-0.24;86.80
12907;DHT22;6521;50.498;8.474;2022-11-20T04:52:54;-0.21;87.43
12907;DHT22;6521;50.498;8.474;2022-11-20T04:55:24;-0.20;87.31
12907;DHT22;6521;50.498;8.474;2022-11-20T04:57:55;-0.23;87.41
12907;DHT22;6521;50.498;8.474;2022-11-20T05:00:25;-0.24;88.13
12907;DHT22;6521;50.498;8.474;2022-11-20T05:02:56;-0.17;88.23
12907;DHT22;6521;50.498;8.474;2022-11-20T05:05:26;-0.14;88.02
12907;DHT22;6521;50.498;8.474;2022-11-20T05:07:57;-0.16;87.90
12907;DHT22;6521;50.498;8.474;2022-11-20T05:10:28;-0.14;87.94
12907;DHT22;6521;50.498;8.474;2022-11-20T05:12:59;-0.16;88.24
12907;DHT22;6521;50.498;8.474;2022-11-20T05:15:29;-0.13;88.22
12907;DHT22;6521;50.498;8.474;2022-11-20T05:17:59;-0.16;88.12
12907;DHT22;6521;50.498;8.474;2022-11-20T05:20:30;-0.19;88.65
12907;DHT22;6521;50.498;8.474;2022-11-20T05:23:00;-0.17;88.77
12907;DHT22;6521;50.498;8.474;2022-11-20T05:25:31;-0.13;88.95
12907;DHT22;6521;50.498;8.474;2022-11-20T05:28:01;-0.17;89.23
12907;DHT22;6521;50.498;8.474;2022-11-20T05:30:31;-0.16;89.55
12907;DHT22;6521;50.498;8.474;2022-11-20T05:33:02;-0.07;89.76
12907;DHT22;6521;50.498;8.474;2022-11-20T05:35:32;0.00;89.84
12907;DHT22;6521;50.498;8.474;2022-11-20T05:38:03;-0.02;89.75
12907;DHT22;6521;50.498;8.474;2022-11-20T05:40:33;-0.02;90.02
12907;DHT22;6521;50.498;8.474;2022-11-20T05:43:04;-0.13;90.50
12907;DHT22;6521;50.498;8.474;2022-11-20T05:45:34;-0.23;90.82
12907;DHT22;6521;50.498;8.474;2022-11-20T05:48:05;-0.31;91.23
12907;DHT22;6521;50.498;8.474;2022-11-20T05:50:35;-0.33;91.47
12907;DHT22;6521;50.498;8.474;2022-11-20T05:53:06;-0.33;91.71
12907;DHT22;6521;50.498;8.474;2022-11-20T05:55:36;-0.27;91.89
12907;DHT22;6521;50.498;8.474;2022-11-20T05:58:06;-0.16;91.78
12907;DHT22;6521;50.498;8.474;2022-11-20T06:00:37;-0.06;91.68
12907;DHT22;6521;50.498;8.474;2022-11-20T06:03:07;-0.02;91.57
12907;DHT22;6521;50.498;8.474;2022-11-20T06:05:38;0.08;91.62
12907;DHT22;6521;50.498;8.474;2022-11-20T06:08:09;0.10;91.57
12907;DHT22;6521;50.498;8.474;2022-11-20T06:10:39;0.11;91.72
12907;DHT22;6521;50.498;8.474;2022-11-20T06:13:10;0.12;91.65
12907;DHT22;6521;50.498;8.474;2022-11-20T06:15:40;0.12;91.56
12907;DHT22;6521;50.498;8.474;2022-11-20T06:18:10;0.11;91.39
12907;DHT22;6521;50.498;8.474;2022-11-20T06:20:41;0.15;91.37
12907;DHT22;6521;50.498;8.474;2022-11-20T06:23:12;0.11;91.45
12907;DHT22;6521;50.498;8.474;2022-11-20T06:25:43;0.10;91.62
12907;DHT22;6521;50.498;8.474;2022-11-20T06:28:13;0.12;91.61
12907;DHT22;6521;50.498;8.474;2022-11-20T06:30:44;0.15;91.56
12907;DHT22;6521;50.498;8.474;2022-11-20T06:33:16;0.12;91.38
12907;DHT22;6521;50.498;8.474;2022-11-20T06:35:46;0.14;91.10
12907;DHT22;6521;50.498;8.474;2022-11-20T06:38:17;0.11;91.43
12907;DHT22;6521;50.498;8.474;2022-11-20T06:40:47;0.07;91.47
12907;DHT22;6521;50.498;8.474;2022-11-20T06:43:18;0.07;91.64
12907;DHT22;6521;50.498;8.474;2022-11-20T06:45:52;0.05;91.89
12907;DHT22;6521;50.498;8.474;2022-11-20T06:48:26;0.10;91.79
12907;DHT22;6521;50.498;8.474;2022-11-20T06:50:56;0.12;91.69
12907;DHT22;6521;50.498;8.474;2022-11-20T06:53:27;0.18;91.67
12907;DHT22;6521;50.498;8.474;2022-11-20T06:55:57;0.22;91.78
12907;DHT22;6521;50.498;8.474;2022-11-20T06:58:30;0.24;91.58
12907;DHT22;6521;50.498;8.474;2022-11-20T07:01:02;0.25;91.24
12907;DHT22;6521;50.498;8.474;2022-11-20T07:03:33;0.15;91.10
12907;DHT22;6521;50.498;8.474;2022-11-20T07:06:04;0.18;91.53
12907;DHT22;6521;50.498;8.474;2022-11-20T07:08:35;0.19;91.77
12907;DHT22;6521;50.498;8.474;2022-11-20T07:11:07;0.25;91.73
12907;DHT22;6521;50.498;8.474;2022-11-20T07:13:38;0.28;91.87
12907;DHT22;6521;50.498;8.474;2022-11-20T07:16:09;0.32;91.78
12907;DHT22;6521;50.498;8.474;2022-11-20T07:18:39;0.35;91.68
12907;DHT22;6521;50.498;8.474;2022-11-20T07:21:10;0.38;91.73
12907;DHT22;6521;50.498;8.474;2022-11-20T07:23:41;0.41;91.16
12907;DHT22;6521;50.498;8.474;2022-11-20T07:26:11;0.37;91.09
12907;DHT22;6521;50.498;8.474;2022-11-20T07:28:44;0.32;91.25
12907;DHT22;6521;50.498;8.474;2022-11-20T07:31:15;0.31;91.14
12907;DHT22;6521;50.498;8.474;2022-11-20T07:33:45;0.29;91.12
12907;DHT22;6521;50.498;8.474;2022-11-20T07:36:16;0.24;90.94
12907;DHT22;6521;50.498;8.474;2022-11-20T07:38:46;0.17;90.89
12907;DHT22;6521;50.498;8.474;2022-11-20T07:41:17;0.15;91.28
12907;DHT22;6521;50.498;8.474;2022-11-20T07:43:47;0.12;91.25
12907;DHT22;6521;50.498;8.474;2022-11-20T07:46:18;0.10;91.23
12907;DHT22;6521;50.498;8.474;2022-11-20T07:48:48;0.08;91.73
12907;DHT22;6521;50.498;8.474;2022-11-20T07:51:19;0.12;91.50
12907;DHT22;6521;50.498;8.474;2022-11-20T07:53:53;0.17;91.46
12907;DHT22;6521;50.498;8.474;2022-11-20T07:56:23;0.15;91.61
12907;DHT22;6521;50.498;8.474;2022-11-20T07:58:54;0.21;91.63
12907;DHT22;6521;50.498;8.474;2022-11-20T08:01:24;0.21;91.90
12907;DHT22;6521;50.498;8.474;2022-11-20T08:03:54;0.26;91.98
12907;DHT22;6521;50.498;8.474;2022-11-20T08:06:25;0.29;91.78
12907;DHT22;6521;50.498;8.474;2022-11-20T08:08:55;0.26;91.96
12907;DHT22;6521;50.498;8.474;2022-11-20T08:11:26;0.28;92.04
12907;DHT22;6521;50.498;8.474;2022-11-20T08:14:15;0.28;92.09
12907;DHT22;6521;50.498;8.474;2022-11-20T08:16:47;0.32;92.00
12907;DHT22;6521;50.498;8.474;2022-11-20T08:19:18;0.38;92.19
12907;DHT22;6521;50.498;8.474;2022-11-20T08:22:07;0.29;91.79
12907;DHT22;6521;50.498;8.474;2022-11-20T08:24:58;0.32;91.99
12907;DHT22;6521;50.498;8.474;2022-11-20T08:27:31;0.37;92.13
12907;DHT22;6521;50.498;8.474;2022-11-20T08:30:02;0.37;92.18
12907;DHT22;6521;50.498;8.474;2022-11-20T08:32:32;0.39;92.24
12907;DHT22;6521;50.498;8.474;2022-11-20T08:35:05;0.44;92.60
12907;DHT22;6521;50.498;8.474;2022-11-20T08:37:36;0.44;92.42
12907;DHT22;6521;50.498;8.474;2022-11-20T08:40:10;0.44;92.47
12907;DHT22;6521;50.498;8.474;2022-11-20T08:42:48;0.48;92.80
12907;DHT22;6521;50.498;8.474;2022-11-20T08:45:19;0.51;92.74
12907;DHT22;6521;50.498;8.474;2022-11-20T08:47:51;0.53;92.69
12907;DHT22;6521;50.498;8.474;2022-11-20T08:50:21;0.56;92.79
12907;DHT22;6521;50.498;8.474;2022-11-20T08:52:52;0.62;92.70
12907;DHT22;6521;50.498;8.474;2022-11-20T08:55:23;0.62;92.82
12907;DHT22;6521;50.498;8.474;2022-11-20T08:57:55;0.65;92.81
12907;DHT22;6521;50.498;8.474;2022-11-20T09:00:30;0.72;93.12
12907;DHT22;6521;50.498;8.474;2022-11-20T09:03:15;0.79;93.15
12907;DHT22;6521;50.498;8.474;2022-11-20T09:05:46;0.89;93.08
12907;DHT22;6521;50.498;8.474;2022-11-20T09:08:16;0.93;93.11
12907;DHT22;6521;50.498;8.474;2022-11-20T09:10:51;0.99;93.07
12907;DHT22;6521;50.498;8.474;2022-11-20T09:13:23;1.04;93.18
12907;DHT22;6521;50.498;8.474;2022-11-20T09:15:56;1.08;92.87
12907;DHT22;6521;50.498;8.474;2022-11-20T09:18:27;1.10;92.88
12907;DHT22;6521;50.498;8.474;2022-11-20T09:20:59;1.11;92.78
12907;DHT22;6521;50.498;8.474;2022-11-20T09:23:32;1.16;93.11
12907;DHT22;6521;50.498;8.474;2022-11-20T09:26:12;1.28;93.47
12907;DHT22;6521;50.498;8.474;2022-11-20T09:28:44;1.40;93.18
12907;DHT22;6521;50.498;8.474;2022-11-20T09:31:33;1.40;92.75
12907;DHT22;6521;50.498;8.474;2022-11-20T09:34:04;1.44;92.81
12907;DHT22;6521;50.498;8.474;2022-11-20T09:36:34;1.45;92.32
12907;DHT22;6521;50.498;8.474;2022-11-20T09:39:05;1.40;92.21
12907;DHT22;6521;50.498;8.474;2022-11-20T09:44:53;1.38;92.74
12907;DHT22;6521;50.498;8.474;2022-11-20T09:47:33;1.41;92.81
12907;DHT22;6521;50.498;8.474;2022-11-20T09:53:23;1.58;92.60
12907;DHT22;6521;50.498;8.474;2022-11-20T09:56:00;1.63;92.78
12907;DHT22;6521;50.498;8.474;2022-11-20T09:58:40;1.66;92.46
12907;DHT22;6521;50.498;8.474;2022-11-20T10:01:21;1.78;92.71
12907;DHT22;6521;50.498;8.474;2022-11-20T10:04:13;1.80;92.57
12907;DHT22;6521;50.498;8.474;2022-11-20T10:07:11;1.90;92.59
12907;DHT22;6521;50.498;8.474;2022-11-20T10:09:51;1.93;92.26
12907;DHT22;6521;50.498;8.474;2022-11-20T10:18:32;2.00;91.95
12907;DHT22;6521;50.498;8.474;2022-11-20T10:30:17;1.87;91.63
12907;DHT22;6521;50.498;8.474;2022-11-20T10:32:58;1.80;91.99
12907;DHT22;6521;50.498;8.474;2022-11-20T10:35:52;1.80;92.03
12907;DHT22;6521;50.498;8.474;2022-11-20T10:38:44;1.76;91.92
12907;DHT22;6521;50.498;8.474;2022-11-20T10:41:36;1.76;92.15
12907;DHT22;6521;50.498;8.474;2022-11-20T10:44:17;1.73;92.33
12907;DHT22;6521;50.498;8.474;2022-11-20T10:47:15;1.69;92.67
12907;DHT22;6521;50.498;8.474;2022-11-20T10:49:49;1.72;92.72
12907;DHT22;6521;50.498;8.474;2022-11-20T10:55:39;1.80;92.90
12907;DHT22;6521;50.498;8.474;2022-11-20T10:58:16;1.85;93.13
12907;DHT22;6521;50.498;8.474;2022-11-20T11:00:51;1.92;92.91
12907;DHT22;6521;50.498;8.474;2022-11-20T11:03:28;1.95;92.79
12907;DHT22;6521;50.498;8.474;2022-11-20T11:06:17;2.00;92.69
12907;DHT22;6521;50.498;8.474;2022-11-20T11:08:50;2.03;92.50
12907;DHT22;6521;50.498;8.474;2022-11-20T11:11:29;2.00;92.34
12907;DHT22;6521;50.498;8.474;2022-11-20T11:14:11;2.06;92.58
12907;DHT22;6521;50.498;8.474;2022-11-20T11:19:23;1.99;92.43
12907;DHT22;6521;50.498;8.474;2022-11-20T11:21:56;2.00;92.39
12907;DHT22;6521;50.498;8.474;2022-11-20T11:24:28;1.98;92.37
12907;DHT22;6521;50.498;8.474;2022-11-20T11:27:01;1.93;92.46
12907;DHT22;6521;50.498;8.474;2022-11-20T11:29:37;1.82;92.52
12907;DHT22;6521;50.498;8.474;2022-11-20T11:32:11;1.78;92.89
12907;DHT22;6521;50.498;8.474;2022-11-20T11:34:42;1.87;93.23
12907;DHT22;6521;50.498;8.474;2022-11-20T11:37:17;2.05;93.39
12907;DHT22;6521;50.498;8.474;2022-11-20T11:39:49;2.09;92.86
12907;DHT22;6521;50.498;8.474;2022-11-20T11:42:20;2.17;93.17
12907;DHT22;6521;50.498;8.474;2022-11-20T11:44:51;2.34;93.16
12907;DHT22;6521;50.498;8.474;2022-11-20T11:50:17;2.51;92.13
12907;DHT22;6521;50.498;8.474;2022-11-20T11:52:56;2.47;91.58
12907;DHT22;6521;50.498;8.474;2022-11-20T11:55:36;2.41;91.59
12907;DHT22;6521;50.498;8.474;2022-11-20T12:00:56;2.21;91.77
12907;DHT22;6521;50.498;8.474;2022-11-20T12:03:33;2.20;92.01
12907;DHT22;6521;50.498;8.474;2022-11-20T12:06:13;2.28;92.47
12907;DHT22;6521;50.498;8.474;2022-11-20T12:09:17;2.40;92.55
12907;DHT22;6521;50.498;8.474;2022-11-20T12:12:05;2.44;92.09
12907;DHT22;6521;50.498;8.474;2022-11-20T12:14:40;2.42;92.27
12907;DHT22;6521;50.498;8.474;2022-11-20T12:17:13;2.36;91.86
12907;DHT22;6521;50.498;8.474;2022-11-20T12:19:44;2.28;91.82
12907;DHT22;6521;50.498;8.474;2022-11-20T12:22:43;2.20;92.05
12907;DHT22;6521;50.498;8.474;2022-11-20T12:25:30;2.20;92.64
12907;DHT22;6521;50.498;8.474;2022-11-20T12:31:02;2.17;92.74
12907;DHT22;6521;50.498;8.474;2022-11-20T12:36:31;2.21;92.95
12907;DHT22;6521;50.498;8.474;2022-11-20T12:39:22;2.24;93.18
12907;DHT22;6521;50.498;8.474;2022-11-20T12:47:53;2.28;92.86
12907;DHT22;6521;50.498;8.474;2022-11-20T12:53:21;2.44;92.95
12907;DHT22;6521;50.498;8.474;2022-11-20T12:59:17;2.48;92.87
12907;DHT22;6521;50.498;8.474;2022-11-20T13:01:57;2.41;92.47
12907;DHT22;6521;50.498;8.474;2022-11-20T13:07:10;2.40;92.64
12907;DHT22;6521;50.498;8.474;2022-11-20T13:09:47;2.36;92.68
12907;DHT22;6521;50.498;8.474;2022-11-20T13:15:35;2.48;92.79
12907;DHT22;6521;50.498;8.474;2022-11-20T13:18:10;2.40;92.63
12907;DHT22;6521;50.498;8.474;2022-11-20T13:20:43;2.45;92.90
12907;DHT22;6521;50.498;8.474;2022-11-20T13:23:27;2.54;92.84
12907;DHT22;6521;50.498;8.474;2022-11-20T13:26:06;2.47;92.72
12907;DHT22;6521;50.498;8.474;2022-11-20T13:28:46;2.47;92.88
12907;DHT22;6521;50.498;8.474;2022-11-20T13:31:44;2.47;92.98
12907;DHT22;6521;50.498;8.474;2022-11-20T13:34:26;2.48;93.03
12907;DHT22;6521;50.498;8.474;2022-11-20T13:36:59;2.48;93.02
12907;DHT22;6521;50.498;8.474;2022-11-20T13:42:20;2.41;93.58
12907;DHT22;6521;50.498;8.474;2022-11-20T13:44:54;2.45;93.66
12907;DHT22;6521;50.498;8.474;2022-11-20T13:47:27;2.45;93.56
12907;DHT22;6521;50.498;8.474;2022-11-20T13:49:58;2.45;93.51
12907;DHT22;6521;50.498;8.474;2022-11-20T13:58:05;2.52;94.14
12907;DHT22;6521;50.498;8.474;2022-11-20T14:00:57;2.52;94.18
12907;DHT22;6521;50.498;8.474;2022-11-20T14:03:30;2.51;94.46
12907;DHT22;6521;50.498;8.474;2022-11-20T14:06:10;2.48;94.62
12907;DHT22;6521;50.498;8.474;2022-11-20T14:08:47;2.48;94.69
12907;DHT22;6521;50.498;8.474;2022-11-20T14:11:18;2.50;94.92
12907;DHT22;6521;50.498;8.474;2022-11-20T14:16:31;2.54;95.04
12907;DHT22;6521;50.498;8.474;2022-11-20T14:22:07;2.55;95.15
12907;DHT22;6521;50.498;8.474;2022-11-20T14:24:38;2.55;95.16
12907;DHT22;6521;50.498;8.474;2022-11-20T14:27:13;2.55;95.23
12907;DHT22;6521;50.498;8.474;2022-11-20T14:29:46;2.52;95.21
12907;DHT22;6521;50.498;8.474;2022-11-20T14:32:19;2.51;95.34
12907;DHT22;6521;50.498;8.474;2022-11-20T14:34:50;2.50;95.41
12907;DHT22;6521;50.498;8.474;2022-11-20T14:37:24;2.47;95.45
12907;DHT22;6521;50.498;8.474;2022-11-20T14:40:34;2.44;95.36
12907;DHT22;6521;50.498;8.474;2022-11-20T14:43:27;2.44;95.49
12907;DHT22;6521;50.498;8.474;2022-11-20T14:46:03;2.50;95.38
12907;DHT22;6521;50.498;8.474;2022-11-20T14:48:38;2.55;95.39
12907;DHT22;6521;50.498;8.474;2022-11-20T14:51:11;2.55;95.36
12907;DHT22;6521;50.498;8.474;2022-11-20T14:53:42;2.55;95.30
12907;DHT22;6521;50.498;8.474;2022-11-20T14:56:21;2.55;95.40
12907;DHT22;6521;50.498;8.474;2022-11-20T14:58:57;2.51;95.31
12907;DHT22;6521;50.498;8.474;2022-11-20T15:01:30;2.48;95.32
12907;DHT22;6521;50.498;8.474;2022-11-20T15:04:10;2.44;95.38
12907;DHT22;6521;50.498;8.474;2022-11-20T15:06:50;2.40;95.41
12907;DHT22;6521;50.498;8.474;2022-11-20T15:09:21;2.40;95.52
12907;DHT22;6521;50.498;8.474;2022-11-20T15:11:56;2.40;95.52
12907;DHT22;6521;50.498;8.474;2022-11-20T15:14:31;2.40;95.49
12907;DHT22;6521;50.498;8.474;2022-11-20T15:17:03;2.38;95.53
12907;DHT22;6521;50.498;8.474;2022-11-20T15:19:33;2.36;95.69
12907;DHT22;6521;50.498;8.474;2022-11-20T15:22:10;2.37;95.59
12907;DHT22;6521;50.498;8.474;2022-11-20T15:24:43;2.31;95.56
12907;DHT22;6521;50.498;8.474;2022-11-20T15:27:13;2.31;95.70
12907;DHT22;6521;50.498;8.474;2022-11-20T15:29:44;2.30;95.70
12907;DHT22;6521;50.498;8.474;2022-11-20T15:32:15;2.30;95.76
12907;DHT22;6521;50.498;8.474;2022-11-20T15:34:46;2.27;95.83
12907;DHT22;6521;50.498;8.474;2022-11-20T15:37:16;2.27;95.84
12907;DHT22;6521;50.498;8.474;2022-11-20T15:39:47;2.24;95.83
12907;DHT22;6521;50.498;8.474;2022-11-20T15:42:18;2.24;95.86
12907;DHT22;6521;50.498;8.474;2022-11-20T15:44:48;2.23;95.90
12907;DHT22;6521;50.498;8.474;2022-11-20T15:47:22;2.21;95.91
12907;DHT22;6521;50.498;8.474;2022-11-20T15:49:55;2.20;95.94
12907;DHT22;6521;50.498;8.474;2022-11-20T15:52:26;2.21;95.94
12907;DHT22;6521;50.498;8.474;2022-11-20T15:54:57;2.23;96.02
12907;DHT22;6521;50.498;8.474;2022-11-20T15:57:28;2.23;96.05
12907;DHT22;6521;50.498;8.474;2022-11-20T15:59:59;2.23;96.01
12907;DHT22;6521;50.498;8.474;2022-11-20T16:02:29;2.21;95.96
12907;DHT22;6521;50.498;8.474;2022-11-20T16:05:00;2.17;96.02
12907;DHT22;6521;50.498;8.474;2022-11-20T16:07:31;2.20;96.05
12907;DHT22;6521;50.498;8.474;2022-11-20T16:10:02;2.16;96.04
12907;DHT22;6521;50.498;8.474;2022-11-20T16:12:33;2.20;96.07
12907;DHT22;6521;50.498;8.474;2022-11-20T16:15:23;2.16;96.08
12907;DHT22;6521;50.498;8.474;2022-11-20T16:18:15;2.17;96.12
12907;DHT22;6521;50.498;8.474;2022-11-20T16:20:49;2.14;96.09
12907;DHT22;6521;50.498;8.474;2022-11-20T16:23:21;2.16;96.21
12907;DHT22;6521;50.498;8.474;2022-11-20T16:25:52;2.17;96.33
12907;DHT22;6521;50.498;8.474;2022-11-20T16:28:23;2.20;96.25
12907;DHT22;6521;50.498;8.474;2022-11-20T16:30:53;2.21;96.24
12907;DHT22;6521;50.498;8.474;2022-11-20T16:33:24;2.24;96.35
12907;DHT22;6521;50.498;8.474;2022-11-20T16:35:55;2.23;96.36
12907;DHT22;6521;50.498;8.474;2022-11-20T16:38:26;2.24;96.37
12907;DHT22;6521;50.498;8.474;2022-11-20T16:41:00;2.28;96.40
12907;DHT22;6521;50.498;8.474;2022-11-20T16:43:31;2.26;96.41
12907;DHT22;6521;50.498;8.474;2022-11-20T16:46:03;2.28;96.35
12907;DHT22;6521;50.498;8.474;2022-11-20T16:48:34;2.28;96.34
12907;DHT22;6521;50.498;8.474;2022-11-20T16:51:08;2.28;96.31
12907;DHT22;6521;50.498;8.474;2022-11-20T16:53:39;2.26;96.40
12907;DHT22;6521;50.498;8.474;2022-11-20T16:56:16;2.31;96.42
12907;DHT22;6521;50.498;8.474;2022-11-20T16:58:48;2.27;96.44
12907;DHT22;6521;50.498;8.474;2022-11-20T17:01:21;2.26;96.52
12907;DHT22;6521;50.498;8.474;2022-11-20T17:03:59;2.30;96.40
12907;DHT22;6521;50.498;8.474;2022-11-20T17:06:33;2.30;96.43
12907;DHT22;6521;50.498;8.474;2022-11-20T17:09:04;2.28;96.48
12907;DHT22;6521;50.498;8.474;2022-11-20T17:11:35;2.33;96.29
12907;DHT22;6521;50.498;8.474;2022-11-20T17:14:06;2.28;96.40
12907;DHT22;6521;50.498;8.474;2022-11-20T17:16:37;2.36;96.55
12907;DHT22;6521;50.498;8.474;2022-11-20T17:19:08;2.37;96.50
12907;DHT22;6521;50.498;8.474;2022-11-20T17:21:39;2.38;96.45
12907;DHT22;6521;50.498;8.474;2022-11-20T17:24:11;2.38;96.44
12907;DHT22;6521;50.498;8.474;2022-11-20T17:26:43;2.37;96.54
12907;DHT22;6521;50.498;8.474;2022-11-20T17:29:16;2.37;96.38
12907;DHT22;6521;50.498;8.474;2022-11-20T17:31:47;2.36;96.45
12907;DHT22;6521;50.498;8.474;2022-11-20T17:34:18;2.34;96.56
12907;DHT22;6521;50.498;8.474;2022-11-20T17:36:49;2.34;96.64
12907;DHT22;6521;50.498;8.474;2022-11-20T17:39:19;2.34;96.75
12907;DHT22;6521;50.498;8.474;2022-11-20T17:41:50;2.36;96.75
12907;DHT22;6521;50.498;8.474;2022-11-20T17:44:41;2.36;96.80
12907;DHT22;6521;50.498;8.474;2022-11-20T17:47:13;2.36;96.81
12907;DHT22;6521;50.498;8.474;2022-11-20T17:49:44;2.37;96.86
12907;DHT22;6521;50.498;8.474;2022-11-20T17:52:14;2.37;96.92
12907;DHT22;6521;50.498;8.474;2022-11-20T17:54:45;2.36;96.97
12907;DHT22;6521;50.498;8.474;2022-11-20T17:57:16;2.33;97.14
12907;DHT22;6521;50.498;8.474;2022-11-20T18:00:05;2.36;97.34